ADDS TAF Data INFO
IDs: Format: Raw Decoded Include METARs

Data at: 0059 UTC 21 Oct 2017

METAR for:KMSL (Muscle Shoals/NW Ala, AL, US)
Text:KMSL 210053Z AUTO 11005KT 10SM CLR 17/08 A3017 RMK AO2 SLP214 T01670078
Temperature: 16.7°C ( 62°F)
Dewpoint: 7.8°C ( 46°F) [RH = 56%]
Pressure (altimeter):30.17 inches Hg (1021.8 mb) [Sea level pressure: 1021.4 mb]
Winds:from the ESE (110 degrees) at 6 MPH (5 knots; 2.6 m/s)
Visibility:10 or more sm (16+ km)
Ceiling:at least 12,000 feet AGL
Clouds:sky clear below 12,000 feet AGL
QC Flag:automated observation with no human augmentation

TAF for:KMSL (Muscle Shoals/NW Ala, AL, US) issued at 2320 UTC 20 Oct 2017
Text:KMSL 202320Z 2100/2124 VRB03KT P6SM SCT250
Forecast period:0000 to 1500 UTC 21 October 2017
Forecast type:FROM: standard forecast or significant change
Winds:variable direction winds at 3 MPH (3 knots; 1.5 m/s)
Visibility:6 or more sm (10+ km)
Ceiling:at least 12,000 feet AGL
Clouds: scattered clouds at 25000 feet AGL
Text:FM211500 15010KT P6SM FEW250
Forecast period:1500 UTC 21 October 2017 to 0000 UTC 22 October 2017
Forecast type:FROM: standard forecast or significant change
Winds:from the SSE (150 degrees) at 12 MPH (10 knots; 5.1 m/s)
Visibility:6 or more sm (10+ km)
Ceiling:at least 12,000 feet AGL
Clouds: few clouds at 25000 feet AGL